createdAt,value
2016-05-17T00:00:30.078Z,1004.55
2016-05-17T00:01:30.112Z,1004.51
2016-05-17T00:02:30.115Z,1004.51
2016-05-17T00:03:30.148Z,1004.52
2016-05-17T00:04:30.167Z,1004.49
2016-05-17T00:05:30.185Z,1004.49
2016-05-17T00:06:30.203Z,1004.48
2016-05-17T00:07:30.238Z,1004.49
2016-05-17T00:08:30.255Z,1004.47
2016-05-17T00:09:30.274Z,1004.47
2016-05-17T00:10:30.292Z,1004.46
2016-05-17T00:11:30.311Z,1004.42
2016-05-17T00:12:30.345Z,1004.49
2016-05-17T00:13:30.363Z,1004.43
2016-05-17T00:14:30.382Z,1004.45
2016-05-17T00:15:30.399Z,1004.45
2016-05-17T00:16:30.433Z,1004.44
2016-05-17T00:17:30.452Z,1004.43
2016-05-17T00:18:30.485Z,1004.43
2016-05-17T00:19:30.489Z,1004.43
2016-05-17T00:20:30.523Z,1004.41
2016-05-17T00:21:30.651Z,1004.39
2016-05-17T00:22:30.575Z,1004.4
2016-05-17T00:23:30.577Z,1004.4
2016-05-17T00:24:30.596Z,1004.43
2016-05-17T00:25:30.629Z,1004.41
2016-05-17T00:26:30.664Z,1004.42
2016-05-17T00:27:30.667Z,1004.43
2016-05-17T00:28:30.685Z,1004.44
2016-05-17T00:29:30.703Z,1004.49
2016-05-17T00:30:30.737Z,1004.44
2016-05-17T00:31:30.755Z,1004.43
2016-05-17T00:32:30.774Z,1004.42
2016-05-17T00:33:30.792Z,1004.42
2016-05-17T00:34:30.810Z,1004.39
2016-05-17T00:35:30.844Z,1004.35
2016-05-17T00:36:30.862Z,1004.39
2016-05-17T00:37:30.881Z,1004.39
2016-05-17T00:38:30.900Z,1004.39
2016-05-17T00:39:30.933Z,1004.42
2016-05-17T00:40:30.952Z,1004.39
2016-05-17T00:41:30.969Z,1004.43
2016-05-17T00:42:30.988Z,1004.39
2016-05-17T00:43:31.006Z,1004.37
2016-05-17T00:44:31.041Z,1004.37
2016-05-17T00:45:31.059Z,1004.34
2016-05-17T00:46:31.077Z,1004.36
2016-05-17T00:47:31.096Z,1004.38
2016-05-17T00:48:31.114Z,1004.35
2016-05-17T00:49:31.147Z,1004.38
2016-05-17T00:50:31.165Z,1004.39
2016-05-17T00:51:31.184Z,1004.38
2016-05-17T00:52:31.202Z,1004.37
2016-05-17T00:53:31.221Z,1004.39
2016-05-17T00:54:31.254Z,1004.39
2016-05-17T00:55:31.273Z,1004.42
2016-05-17T00:56:31.291Z,1004.42
2016-05-17T00:57:31.309Z,1004.41
2016-05-17T00:58:31.343Z,1004.41
2016-05-17T00:59:31.362Z,1004.44
2016-05-17T01:00:31.381Z,1004.46
2016-05-17T01:01:31.399Z,1004.41
2016-05-17T01:02:31.432Z,1004.41
2016-05-17T01:03:31.435Z,1004.43
2016-05-17T01:04:31.469Z,1004.4
2016-05-17T01:05:31.487Z,1004.41
2016-05-17T01:06:31.505Z,1004.39
2016-05-17T01:07:31.540Z,1004.37
2016-05-17T01:08:31.558Z,1004.43
2016-05-17T01:09:31.576Z,1004.37
2016-05-17T01:10:31.595Z,1004.38
2016-05-17T01:11:31.628Z,1004.4
2016-05-17T01:12:31.631Z,1004.45
2016-05-17T01:13:31.650Z,1004.42
2016-05-17T01:14:31.683Z,1004.45
2016-05-17T01:15:31.702Z,1004.42
2016-05-17T01:16:31.720Z,1004.45
2016-05-17T01:17:31.739Z,1004.43
2016-05-17T01:18:31.772Z,1004.42
2016-05-17T01:19:31.791Z,1004.39
2016-05-17T01:20:31.810Z,1004.36
2016-05-17T01:21:31.827Z,1004.36
2016-05-17T01:22:31.846Z,1004.37
2016-05-17T01:23:31.879Z,1004.37
2016-05-17T01:24:31.929Z,1004.33
2016-05-17T01:25:31.916Z,1004.29
2016-05-17T01:26:31.935Z,1004.34
2016-05-17T01:27:31.953Z,1004.34
2016-05-17T01:28:31.971Z,1004.32
2016-05-17T01:29:32.004Z,1004.36
2016-05-17T01:30:32.023Z,1004.33
2016-05-17T01:31:32.042Z,1004.31
2016-05-17T01:32:32.059Z,1004.28
2016-05-17T01:33:32.095Z,1004.3
2016-05-17T01:34:32.112Z,1004.28
2016-05-17T01:35:32.131Z,1004.28
2016-05-17T01:36:32.149Z,1004.27
2016-05-17T01:37:32.167Z,1004.26
2016-05-17T01:38:32.186Z,1004.25
2016-05-17T01:39:32.219Z,1004.21
2016-05-17T01:40:32.238Z,1004.22
2016-05-17T01:41:32.272Z,1004.17
2016-05-17T01:42:32.275Z,1004.18
2016-05-17T01:43:32.292Z,1004.19
2016-05-17T01:44:32.327Z,1004.16
2016-05-17T01:45:32.344Z,1004.14
2016-05-17T01:46:32.363Z,1004.1
2016-05-17T01:47:32.382Z,1004.09
2016-05-17T01:48:32.399Z,1004.06
2016-05-17T01:49:32.419Z,1004.09
2016-05-17T01:50:32.452Z,1004.07
2016-05-17T01:51:32.471Z,1004.06
2016-05-17T01:52:32.489Z,1004.07
2016-05-17T01:53:32.507Z,1004.06
2016-05-17T01:54:32.526Z,1004.07
2016-05-17T01:55:32.559Z,1004.07
2016-05-17T01:56:32.577Z,1004.04
2016-05-17T01:57:32.596Z,1004.01
2016-05-17T01:58:32.615Z,1004.05
2016-05-17T01:59:32.632Z,1004.03
2016-05-17T02:00:32.667Z,1004.06
2016-05-17T02:01:32.685Z,1004.01
2016-05-17T02:02:32.703Z,1004.03
2016-05-17T02:03:32.737Z,1004.01
2016-05-17T02:04:32.739Z,1004.05
2016-05-17T02:05:32.759Z,1004.04
2016-05-17T02:06:32.808Z,1004.02
2016-05-17T02:07:32.811Z,1004.02
2016-05-17T02:08:32.829Z,1004.05
2016-05-17T02:09:32.847Z,1004.05
2016-05-17T02:10:32.865Z,1004.01
2016-05-17T02:11:32.900Z,1004.03
2016-05-17T02:12:32.917Z,1003.99
2016-05-17T02:13:32.936Z,1004.04
2016-05-17T02:14:32.955Z,1003.99
2016-05-17T02:15:32.972Z,1004.03
2016-05-17T02:16:33.006Z,1004.05
2016-05-17T02:17:33.025Z,1004.03
2016-05-17T02:18:33.043Z,1004.02
2016-05-17T02:19:33.062Z,1004.04
2016-05-17T02:20:33.079Z,1004.06
2016-05-17T02:21:33.098Z,1004.06
2016-05-17T02:22:33.116Z,1004.03
2016-05-17T02:23:33.182Z,1004.06
2016-05-17T02:24:33.169Z,1004.03
2016-05-17T02:25:33.187Z,1004.03
2016-05-17T02:26:33.205Z,1004.01
2016-05-17T02:27:33.255Z,1004.01
2016-05-17T02:28:33.257Z,1004
2016-05-17T02:29:33.276Z,1004.02
2016-05-17T02:30:33.294Z,1004.04
2016-05-17T02:31:33.313Z,1004.07
2016-05-17T02:32:33.331Z,1004.03
2016-05-17T02:33:33.365Z,1004.01
2016-05-17T02:34:33.383Z,1004.03
2016-05-17T02:35:33.401Z,1004.01
2016-05-17T02:36:33.419Z,1004.01
2016-05-17T02:37:33.438Z,1003.97
2016-05-17T02:38:33.519Z,1004.01
2016-05-17T02:39:33.475Z,1004.01
2016-05-17T02:40:33.509Z,1004.02
2016-05-17T02:41:33.527Z,1003.98
2016-05-17T02:42:33.545Z,1003.96
2016-05-17T02:43:33.563Z,1004
2016-05-17T02:44:33.581Z,1003.98
2016-05-17T02:45:33.600Z,1004.01
2016-05-17T02:46:33.634Z,1004.05
2016-05-17T02:47:33.653Z,1004.03
2016-05-17T02:48:33.671Z,1004.04
2016-05-17T02:49:33.688Z,1004.03
2016-05-17T02:50:33.722Z,1004.03
2016-05-17T02:51:34.039Z,1004.02
2016-05-17T02:52:33.760Z,1004.05
2016-05-17T02:53:33.778Z,1004.04
2016-05-17T02:54:33.796Z,1004.06
2016-05-17T02:55:33.815Z,1004.05
2016-05-17T02:56:33.833Z,1004.06
2016-05-17T02:57:33.851Z,1004.08
2016-05-17T02:58:33.885Z,1004.11
2016-05-17T02:59:33.904Z,1004.13
2016-05-17T03:00:33.922Z,1004.09
2016-05-17T03:01:33.940Z,1004.14
2016-05-17T03:02:33.959Z,1004.11
2016-05-17T03:03:33.976Z,1004.13
2016-05-17T03:04:34.010Z,1004.11
2016-05-17T03:05:34.045Z,1004.14
2016-05-17T03:06:34.047Z,1004.15
2016-05-17T03:07:34.065Z,1004.11
2016-05-17T03:08:34.084Z,1004.1
2016-05-17T03:09:34.102Z,1004.06
2016-05-17T03:10:34.136Z,1004.09
2016-05-17T03:11:34.154Z,1004.09
2016-05-17T03:12:34.173Z,1004.09
2016-05-17T03:13:34.191Z,1004.11
2016-05-17T03:14:34.209Z,1004.12
2016-05-17T03:15:34.227Z,1004.12
2016-05-17T03:16:34.262Z,1004.08
2016-05-17T03:17:34.280Z,1004.09
2016-05-17T03:18:34.298Z,1004.08
2016-05-17T03:19:34.317Z,1004.01
2016-05-17T03:20:34.350Z,1004.05
2016-05-17T03:21:34.352Z,1003.99
2016-05-17T03:22:34.387Z,1004.04
2016-05-17T03:23:34.405Z,1003.99
2016-05-17T03:24:34.455Z,1003.96
2016-05-17T03:25:34.441Z,1003.92
2016-05-17T03:26:34.460Z,1003.99
2016-05-17T03:27:34.479Z,1003.98
2016-05-17T03:28:34.497Z,1004.02
2016-05-17T03:29:34.546Z,1004.02
2016-05-17T03:30:34.549Z,1003.95
2016-05-17T03:31:34.567Z,1003.98
2016-05-17T03:32:34.586Z,1003.91
2016-05-17T03:33:34.605Z,1003.95
2016-05-17T03:34:34.623Z,1003.96
2016-05-17T03:35:34.657Z,1003.95
2016-05-17T03:36:34.675Z,1003.98
2016-05-17T03:37:34.693Z,1004.01
2016-05-17T03:38:34.711Z,1003.97
2016-05-17T03:39:34.730Z,1003.96
2016-05-17T03:40:34.748Z,1003.98
2016-05-17T03:41:34.767Z,1004.01
2016-05-17T03:42:34.800Z,1003.96
2016-05-17T03:43:34.819Z,1003.99
2016-05-17T03:44:34.837Z,1004.01
2016-05-17T03:45:34.855Z,1004.01
2016-05-17T03:46:34.873Z,1004.04
2016-05-17T03:47:34.907Z,1004.01
2016-05-17T03:48:34.926Z,1004.06
2016-05-17T03:49:34.944Z,1004.03
2016-05-17T03:50:34.962Z,1004.05
2016-05-17T03:51:34.981Z,1004.08
2016-05-17T03:52:34.999Z,1004.03
2016-05-17T03:53:35.017Z,1004.06
2016-05-17T03:54:35.035Z,1004.04
2016-05-17T03:55:35.069Z,1004.06
2016-05-17T03:56:35.088Z,1004.02
2016-05-17T03:57:35.107Z,1004.01
2016-05-17T03:58:35.124Z,1003.99
2016-05-17T03:59:35.143Z,1004.02
2016-05-17T04:00:35.161Z,1004.01
2016-05-17T04:01:35.179Z,1003.98
2016-05-17T04:02:35.213Z,1004.04
2016-05-17T04:03:35.231Z,1004.06
2016-05-17T04:04:35.251Z,1003.99
2016-05-17T04:05:35.269Z,1004.01
2016-05-17T04:06:35.287Z,1004.04
2016-05-17T04:07:35.305Z,1004.02
2016-05-17T04:08:35.339Z,1004.03
2016-05-17T04:09:35.357Z,1004.02
2016-05-17T04:10:35.375Z,1004.03
2016-05-17T04:11:35.394Z,1004.01
2016-05-17T04:12:35.412Z,1004.03
2016-05-17T04:13:35.431Z,1004.01
2016-05-17T04:14:35.464Z,1004
2016-05-17T04:15:35.483Z,1004.02
2016-05-17T04:16:35.501Z,1004.01
2016-05-17T04:17:35.519Z,1004
2016-05-17T04:18:35.538Z,1003.99
2016-05-17T04:19:35.555Z,1004
2016-05-17T04:20:35.590Z,1004.01
2016-05-17T04:21:35.609Z,1004.02
2016-05-17T04:22:35.642Z,1004.03
2016-05-17T04:23:35.645Z,1004.03
2016-05-17T04:24:35.663Z,1004.05
2016-05-17T04:25:35.682Z,1004.04
2016-05-17T04:26:35.699Z,1004.02
2016-05-17T04:27:35.718Z,1004.02
2016-05-17T04:28:35.752Z,1004.03
2016-05-17T04:29:35.771Z,1003.97
2016-05-17T04:30:35.788Z,1004.02
2016-05-17T04:31:35.807Z,1004.01
2016-05-17T04:32:35.826Z,1004.01
2016-05-17T04:33:35.843Z,1004.03
2016-05-17T04:34:35.862Z,1004.03
2016-05-17T04:35:35.895Z,1004.03
2016-05-17T04:36:36.149Z,1004.07
2016-05-17T04:37:35.933Z,1004.06
2016-05-17T04:38:35.951Z,1004.08
2016-05-17T04:39:35.970Z,1004.04
2016-05-17T04:40:36.003Z,1004.04
2016-05-17T04:41:36.021Z,1004.02
2016-05-17T04:42:36.039Z,1004
2016-05-17T04:43:36.058Z,1004.01
2016-05-17T04:44:36.076Z,1004.02
2016-05-17T04:45:36.095Z,1003.99
2016-05-17T04:46:36.129Z,1004.04
2016-05-17T04:47:36.147Z,1004
2016-05-17T04:48:36.165Z,1003.98
2016-05-17T04:49:36.183Z,1004.06
2016-05-17T04:50:36.202Z,1004.08
2016-05-17T04:51:36.219Z,1004.03
2016-05-17T04:52:36.239Z,1004
2016-05-17T04:53:36.258Z,1004.07
2016-05-17T04:54:36.291Z,1004.06
2016-05-17T04:55:36.309Z,1004.05
2016-05-17T04:56:36.327Z,1004.04
2016-05-17T04:57:36.346Z,1004.04
2016-05-17T04:58:36.364Z,1004.04
2016-05-17T04:59:36.382Z,1004.01
2016-05-17T05:00:36.416Z,1004.04
2016-05-17T05:01:36.419Z,1004.01
2016-05-17T05:02:36.453Z,1003.97
2016-05-17T05:03:36.471Z,1004.01
2016-05-17T05:04:36.490Z,1004.02
2016-05-17T05:05:36.507Z,1003.98
2016-05-17T05:06:36.885Z,1003.96
2016-05-17T05:07:36.559Z,1003.98
2016-05-17T05:08:36.578Z,1003.97
2016-05-17T05:09:36.618Z,1003.94
2016-05-17T05:10:36.679Z,1003.97
2016-05-17T05:11:36.741Z,1003.97
2016-05-17T05:12:36.801Z,1003.96
2016-05-17T05:13:36.879Z,1003.93
2016-05-17T05:14:36.926Z,1003.96
2016-05-17T05:15:36.960Z,1003.96
2016-05-17T05:16:36.994Z,1003.98
2016-05-17T05:17:37.043Z,1004
2016-05-17T05:18:37.062Z,1004.03
2016-05-17T05:19:37.106Z,1004.02
2016-05-17T05:20:37.130Z,1004
2016-05-17T05:21:37.153Z,1004.02
2016-05-17T05:22:37.177Z,1004.01
2016-05-17T05:23:37.199Z,1004
2016-05-17T05:24:37.238Z,1004
2016-05-17T05:25:37.258Z,1004.04
2016-05-17T05:26:37.279Z,1004.02
2016-05-17T05:27:37.299Z,1004
2016-05-17T05:28:37.319Z,1003.97
2016-05-17T05:29:37.339Z,1004.01
2016-05-17T05:30:37.357Z,1004.02
2016-05-17T05:31:37.392Z,1004.01
2016-05-17T05:32:37.411Z,1004.04
2016-05-17T05:33:37.431Z,1004.01
2016-05-17T05:34:37.449Z,1004.03
2016-05-17T05:35:37.468Z,1004.06
2016-05-17T05:36:37.487Z,1003.97
2016-05-17T05:37:37.505Z,1004
2016-05-17T05:38:37.524Z,1004
2016-05-17T05:39:37.558Z,1003.98
2016-05-17T05:40:37.576Z,1003.99
2016-05-17T05:41:37.595Z,1003.95
2016-05-17T05:42:37.613Z,1003.94
2016-05-17T05:43:37.632Z,1003.94
2016-05-17T05:44:37.649Z,1003.85
2016-05-17T05:45:37.684Z,1003.86
2016-05-17T05:46:37.702Z,1003.92
2016-05-17T05:47:37.720Z,1004.02
2016-05-17T05:48:37.740Z,1004.07
2016-05-17T05:49:37.756Z,1004.07
2016-05-17T05:50:37.790Z,1004.08
2016-05-17T05:51:37.809Z,1004.1
2016-05-17T05:52:37.828Z,1004.07
2016-05-17T05:53:37.846Z,1004.12
2016-05-17T05:54:37.865Z,1004.13
2016-05-17T05:55:37.898Z,1004.13
2016-05-17T05:56:37.901Z,1004.14
2016-05-17T05:57:37.935Z,1004.11
2016-05-17T05:58:37.953Z,1004.1
2016-05-17T05:59:37.972Z,1004.15
2016-05-17T06:00:37.990Z,1004.16
2016-05-17T06:01:38.024Z,1004.21
2016-05-17T06:02:38.042Z,1004.07
2016-05-17T06:03:38.061Z,1004.15
2016-05-17T06:04:38.078Z,1004.16
2016-05-17T06:05:38.097Z,1004.16
2016-05-17T06:06:38.130Z,1004.13
2016-05-17T06:07:38.133Z,1004.14
2016-05-17T06:08:38.168Z,1004.17
2016-05-17T06:09:38.186Z,1004.15
2016-05-17T06:10:38.204Z,1004.17
2016-05-17T06:11:38.222Z,1004.21
2016-05-17T06:12:38.240Z,1004.23
2016-05-17T06:13:38.259Z,1004.15
2016-05-17T06:14:38.293Z,1004.19
2016-05-17T06:15:38.312Z,1004.16
2016-05-17T06:16:38.329Z,1004.19
2016-05-17T06:17:38.348Z,1004.18
2016-05-17T06:18:38.366Z,1004.22
2016-05-17T06:19:38.400Z,1004.18
2016-05-17T06:20:38.419Z,1004.2
2016-05-17T06:21:38.812Z,1004.16
2016-05-17T06:22:38.455Z,1004.17
2016-05-17T06:23:38.473Z,1004.2
2016-05-17T06:24:38.507Z,1004.18
2016-05-17T06:25:38.526Z,1004.22
2016-05-17T06:26:38.545Z,1004.22
2016-05-17T06:27:38.563Z,1004.21
2016-05-17T06:28:38.596Z,1004.26
2016-05-17T06:29:38.615Z,1004.23
2016-05-17T06:30:38.633Z,1004.19
2016-05-17T06:31:38.651Z,1004.28
2016-05-17T06:32:38.670Z,1004.24
2016-05-17T06:33:38.689Z,1004.2
2016-05-17T06:34:38.722Z,1004.18
2016-05-17T06:35:38.741Z,1004.18
2016-05-17T06:36:38.759Z,1004.18
2016-05-17T06:37:38.777Z,1004.22
2016-05-17T06:38:38.795Z,1004.19
2016-05-17T06:39:38.813Z,1004.17
2016-05-17T06:40:38.832Z,1004.2
2016-05-17T06:41:38.866Z,1004.21
2016-05-17T06:42:38.885Z,1004.19
2016-05-17T06:43:38.902Z,1004.2
2016-05-17T06:44:38.921Z,1004.27
2016-05-17T06:45:38.939Z,1004.32
2016-05-17T06:46:38.973Z,1004.35
2016-05-17T06:47:38.991Z,1004.34
2016-05-17T06:48:39.009Z,1004.36
2016-05-17T06:49:39.028Z,1004.35
2016-05-17T06:50:39.046Z,1004.35
2016-05-17T06:51:39.268Z,1004.38
2016-05-17T06:52:39.098Z,1004.39
2016-05-17T06:53:39.117Z,1004.34
2016-05-17T06:54:39.135Z,1004.38
2016-05-17T06:55:39.153Z,1004.39
2016-05-17T06:56:39.187Z,1004.4
2016-05-17T06:57:39.205Z,1004.37
2016-05-17T06:58:39.224Z,1004.44
2016-05-17T06:59:39.242Z,1004.46
2016-05-17T07:00:39.261Z,1004.51
2016-05-17T07:01:39.294Z,1004.48
2016-05-17T07:02:39.313Z,1004.49
2016-05-17T07:03:39.331Z,1004.54
2016-05-17T07:04:39.349Z,1004.51
2016-05-17T07:05:39.383Z,1004.55
2016-05-17T07:06:39.402Z,1004.51
2016-05-17T07:07:39.420Z,1004.49
2016-05-17T07:08:39.438Z,1004.47
2016-05-17T07:09:39.457Z,1004.48
2016-05-17T07:10:39.490Z,1004.52
2016-05-17T07:11:39.508Z,1004.53
2016-05-17T07:12:39.527Z,1004.55
2016-05-17T07:13:39.546Z,1004.57
2016-05-17T07:14:39.563Z,1004.53
2016-05-17T07:15:39.598Z,1004.55
2016-05-17T07:16:39.616Z,1004.52
2016-05-17T07:17:39.635Z,1004.51
2016-05-17T07:18:39.652Z,1004.54
2016-05-17T07:19:39.671Z,1004.51
2016-05-17T07:20:39.689Z,1004.5
2016-05-17T07:21:40.192Z,1004.5
2016-05-17T07:22:39.742Z,1004.53
2016-05-17T07:23:39.759Z,1004.54
2016-05-17T07:24:39.779Z,1004.54
2016-05-17T07:25:39.812Z,1004.57
2016-05-17T07:26:39.831Z,1004.56
2016-05-17T07:27:39.849Z,1004.52
2016-05-17T07:28:39.867Z,1004.51
2016-05-17T07:29:39.901Z,1004.52
2016-05-17T07:30:39.919Z,1004.51
2016-05-17T07:31:39.937Z,1004.51
2016-05-17T07:32:39.956Z,1004.51
2016-05-17T07:33:39.975Z,1004.5
2016-05-17T07:34:40.008Z,1004.46
2016-05-17T07:35:40.027Z,1004.48
2016-05-17T07:36:40.045Z,1004.46
2016-05-17T07:37:40.063Z,1004.5
2016-05-17T07:38:40.081Z,1004.48
2016-05-17T07:39:40.116Z,1004.43
2016-05-17T07:40:40.133Z,1004.41
2016-05-17T07:41:40.152Z,1004.43
2016-05-17T07:42:40.171Z,1004.42
2016-05-17T07:43:40.188Z,1004.47
2016-05-17T07:44:40.207Z,1004.42
2016-05-17T07:45:40.240Z,1004.43
2016-05-17T07:46:40.260Z,1004.47
2016-05-17T07:47:40.278Z,1004.43
2016-05-17T07:48:40.296Z,1004.5
2016-05-17T07:49:40.330Z,1004.47
2016-05-17T07:50:40.348Z,1004.45
2016-05-17T07:51:40.366Z,1004.44
2016-05-17T07:52:40.385Z,1004.42
2016-05-17T07:53:40.418Z,1004.37
2016-05-17T07:54:40.437Z,1004.42
2016-05-17T07:55:40.455Z,1004.43
2016-05-17T07:56:40.474Z,1004.41
2016-05-17T07:57:40.492Z,1004.42
2016-05-17T07:58:40.526Z,1004.38
2016-05-17T07:59:40.545Z,1004.41
2016-05-17T08:00:40.578Z,1004.42
2016-05-17T08:01:40.597Z,1004.34
2016-05-17T08:02:40.615Z,1004.4
2016-05-17T08:03:40.633Z,1004.41
2016-05-17T08:04:40.651Z,1004.37
2016-05-17T08:05:40.685Z,1004.33
2016-05-17T08:06:41.095Z,1004.35
2016-05-17T08:07:40.722Z,1004.39
2016-05-17T08:08:41.068Z,1004.37
2016-05-17T08:09:40.806Z,1004.42
2016-05-17T08:10:40.792Z,1004.37
2016-05-17T08:11:40.811Z,1004.41
2016-05-17T08:12:40.830Z,1004.45
2016-05-17T08:13:40.847Z,1004.41
2016-05-17T08:14:40.897Z,1004.43
2016-05-17T08:15:40.899Z,1004.44
2016-05-17T08:16:40.933Z,1004.45
2016-05-17T08:17:40.952Z,1004.48
2016-05-17T08:18:40.970Z,1004.5
2016-05-17T08:19:40.988Z,1004.47
2016-05-17T08:20:41.007Z,1004.46
2016-05-17T08:21:41.040Z,1004.46
2016-05-17T08:22:41.060Z,1004.43
2016-05-17T08:23:41.077Z,1004.41
2016-05-17T08:24:41.112Z,1004.42
2016-05-17T08:25:41.129Z,1004.47
2016-05-17T08:26:41.148Z,1004.52
2016-05-17T08:27:41.167Z,1004.53
2016-05-17T08:28:41.184Z,1004.51
2016-05-17T08:29:41.203Z,1004.52
2016-05-17T08:30:41.237Z,1004.58
2016-05-17T08:31:41.256Z,1004.55
2016-05-17T08:32:41.273Z,1004.52
2016-05-17T08:33:41.308Z,1004.51
2016-05-17T08:34:41.326Z,1004.48
2016-05-17T08:35:41.345Z,1004.53
2016-05-17T08:36:41.550Z,1004.55
2016-05-17T08:37:41.397Z,1004.58
2016-05-17T08:38:41.415Z,1004.54
2016-05-17T08:39:41.433Z,1004.56
2016-05-17T08:40:41.467Z,1004.5
2016-05-17T08:41:41.486Z,1004.52
2016-05-17T08:42:41.503Z,1004.52
2016-05-17T08:43:41.522Z,1004.54
2016-05-17T08:44:41.555Z,1004.53
2016-05-17T08:45:41.574Z,1004.54
2016-05-17T08:46:41.593Z,1004.54
2016-05-17T08:47:41.611Z,1004.52
2016-05-17T08:48:41.644Z,1004.49
2016-05-17T08:49:41.663Z,1004.48
2016-05-17T08:50:41.681Z,1004.43
2016-05-17T08:51:41.699Z,1004.43
2016-05-17T08:52:41.718Z,1004.52
2016-05-17T08:53:41.752Z,1004.51
2016-05-17T08:54:41.771Z,1004.55
2016-05-17T08:55:41.788Z,1004.57
2016-05-17T08:56:41.807Z,1004.58
2016-05-17T08:57:41.841Z,1004.61
2016-05-17T08:58:41.859Z,1004.71
2016-05-17T08:59:41.893Z,1004.59
2016-05-17T09:00:41.912Z,1004.71
2016-05-17T09:01:41.929Z,1004.73
2016-05-17T09:02:41.964Z,1004.72
2016-05-17T09:03:41.966Z,1004.65
2016-05-17T09:04:42.000Z,1004.64
2016-05-17T09:05:42.019Z,1004.62
2016-05-17T09:06:42.036Z,1004.66
2016-05-17T09:07:42.055Z,1004.68
2016-05-17T09:08:42.089Z,1004.66
2016-05-17T09:09:42.108Z,1004.66
2016-05-17T09:10:42.126Z,1004.67
2016-05-17T09:11:42.160Z,1004.7
2016-05-17T09:12:42.178Z,1004.69
2016-05-17T09:13:42.196Z,1004.65
2016-05-17T09:14:42.215Z,1004.73
2016-05-17T09:15:42.233Z,1004.69
2016-05-17T09:16:42.267Z,1004.65
2016-05-17T09:17:42.285Z,1004.7
2016-05-17T09:18:42.304Z,1004.66
2016-05-17T09:19:42.337Z,1004.68
2016-05-17T09:20:42.355Z,1004.7
2016-05-17T09:21:42.499Z,1004.73
2016-05-17T09:22:42.393Z,1004.67
2016-05-17T09:23:42.427Z,1004.68
2016-05-17T09:24:42.445Z,1004.68
2016-05-17T09:25:42.463Z,1004.71
2016-05-17T09:26:42.482Z,1004.63
2016-05-17T09:27:42.515Z,1004.69
2016-05-17T09:28:42.534Z,1004.68
2016-05-17T09:29:42.568Z,1004.68
2016-05-17T09:30:42.586Z,1004.65
2016-05-17T09:31:42.604Z,1004.71
2016-05-17T09:32:42.623Z,1004.65
2016-05-17T09:33:42.657Z,1004.64
2016-05-17T09:34:42.675Z,1004.67
2016-05-17T09:35:42.693Z,1004.66
2016-05-17T09:36:42.712Z,1004.61
2016-05-17T09:37:42.980Z,1004.62
2016-05-17T09:38:42.764Z,1004.63
2016-05-17T09:39:42.782Z,1004.64
2016-05-17T09:40:42.800Z,1004.61
2016-05-17T09:41:42.819Z,1004.61
2016-05-17T09:42:42.853Z,1004.54
2016-05-17T09:43:42.871Z,1004.55
2016-05-17T09:44:42.889Z,1004.54
2016-05-17T09:45:42.922Z,1004.55
2016-05-17T09:46:42.941Z,1004.56
2016-05-17T09:47:42.960Z,1004.54
2016-05-17T09:48:42.993Z,1004.49
2016-05-17T09:49:43.012Z,1004.55
2016-05-17T09:50:43.030Z,1004.55
2016-05-17T09:51:43.330Z,1004.53
2016-05-17T09:52:43.083Z,1004.56
2016-05-17T09:53:43.102Z,1004.57
2016-05-17T09:54:43.134Z,1004.53
2016-05-17T09:55:43.154Z,1004.55
2016-05-17T09:56:43.172Z,1004.54
2016-05-17T09:57:43.190Z,1004.5
2016-05-17T09:58:43.224Z,1004.53
2016-05-17T09:59:43.242Z,1004.56
2016-05-17T10:00:43.260Z,1004.6
2016-05-17T10:01:43.295Z,1004.58
2016-05-17T10:02:43.312Z,1004.56
2016-05-17T10:03:43.331Z,1004.57
2016-05-17T10:04:43.349Z,1004.56
2016-05-17T10:05:43.383Z,1004.59
2016-05-17T10:06:43.401Z,1004.57
2016-05-17T10:07:43.420Z,1004.59
2016-05-17T10:08:43.454Z,1004.55
2016-05-17T10:09:43.472Z,1004.54
2016-05-17T10:10:43.490Z,1004.55
2016-05-17T10:11:43.508Z,1004.58
2016-05-17T10:12:43.559Z,1004.56
2016-05-17T10:13:43.561Z,1004.53
2016-05-17T10:14:43.595Z,1004.54
2016-05-17T10:15:43.614Z,1004.56
2016-05-17T10:16:43.631Z,1004.57
2016-05-17T10:17:43.666Z,1004.56
2016-05-17T10:18:43.669Z,1004.52
2016-05-17T10:19:43.702Z,1004.54
2016-05-17T10:20:43.721Z,1004.56
2016-05-17T10:21:43.755Z,1004.55
2016-05-17T10:22:43.772Z,1004.58
2016-05-17T10:23:43.791Z,1004.59
2016-05-17T10:24:43.809Z,1004.56
2016-05-17T10:25:43.828Z,1004.57
2016-05-17T10:26:43.862Z,1004.55
2016-05-17T10:27:43.879Z,1004.55
2016-05-17T10:28:43.899Z,1004.55
2016-05-17T10:29:43.932Z,1004.59
2016-05-17T10:30:43.950Z,1004.54
2016-05-17T10:31:43.969Z,1004.56
2016-05-17T10:32:43.987Z,1004.56
2016-05-17T10:33:44.021Z,1004.55
2016-05-17T10:34:44.040Z,1004.52
2016-05-17T10:35:44.073Z,1004.54
2016-05-17T10:36:44.091Z,1004.54
2016-05-17T10:37:44.110Z,1004.48
2016-05-17T10:38:44.128Z,1004.48
2016-05-17T10:39:44.147Z,1004.5
2016-05-17T10:40:44.181Z,1004.51
2016-05-17T10:41:44.199Z,1004.48
2016-05-17T10:42:44.217Z,1004.49
2016-05-17T10:43:44.251Z,1004.51
2016-05-17T10:44:44.270Z,1004.5
2016-05-17T10:45:44.288Z,1004.51
2016-05-17T10:46:44.306Z,1004.5
2016-05-17T10:47:44.325Z,1004.46
2016-05-17T10:48:44.358Z,1004.44
2016-05-17T10:49:44.377Z,1004.45
2016-05-17T10:50:44.411Z,1004.45
2016-05-17T10:51:44.430Z,1004.43
2016-05-17T10:52:44.447Z,1004.41
2016-05-17T10:53:44.466Z,1004.37
2016-05-17T10:54:44.483Z,1004.4
2016-05-17T10:55:44.518Z,1004.39
2016-05-17T10:56:44.536Z,1004.46
2016-05-17T10:57:44.554Z,1004.39
2016-05-17T10:58:44.588Z,1004.42
2016-05-17T10:59:44.607Z,1004.41
2016-05-17T11:00:44.625Z,1004.46
2016-05-17T11:01:44.659Z,1004.49
2016-05-17T11:02:44.662Z,1004.5
2016-05-17T11:03:44.695Z,1004.47
2016-05-17T11:04:44.714Z,1004.44
2016-05-17T11:05:44.732Z,1004.36
2016-05-17T11:06:44.765Z,1004.39
2016-05-17T11:07:44.784Z,1004.4
2016-05-17T11:08:44.818Z,1004.44
2016-05-17T11:09:44.837Z,1004.49
2016-05-17T11:10:44.855Z,1004.47
2016-05-17T11:11:44.873Z,1004.48
2016-05-17T11:12:44.891Z,1004.48
2016-05-17T11:13:44.925Z,1004.45
2016-05-17T11:14:44.944Z,1004.47
2016-05-17T11:15:44.961Z,1004.48
2016-05-17T11:16:44.980Z,1004.5
2016-05-17T11:17:45.014Z,1004.48
2016-05-17T11:18:45.033Z,1004.48
2016-05-17T11:19:45.051Z,1004.48
2016-05-17T11:20:45.086Z,1004.49
2016-05-17T11:21:45.118Z,1004.45
2016-05-17T11:22:45.152Z,1004.45
2016-05-17T11:23:45.141Z,1004.52
2016-05-17T11:24:45.174Z,1004.45
2016-05-17T11:25:45.192Z,1004.46
2016-05-17T11:26:45.211Z,1004.47
2016-05-17T11:27:45.229Z,1004.42
2016-05-17T11:28:45.263Z,1004.43
2016-05-17T11:29:45.281Z,1004.43
2016-05-17T11:30:45.299Z,1004.45
2016-05-17T11:31:45.318Z,1004.49
2016-05-17T11:32:45.352Z,1004.46
2016-05-17T11:33:45.370Z,1004.47
2016-05-17T11:34:45.388Z,1004.46
2016-05-17T11:35:45.423Z,1004.43
2016-05-17T11:36:45.440Z,1004.44
2016-05-17T11:37:45.458Z,1004.48
2016-05-17T11:38:45.493Z,1004.45
2016-05-17T11:39:45.511Z,1004.47
2016-05-17T11:40:45.529Z,1004.44
2016-05-17T11:41:45.548Z,1004.45
2016-05-17T11:42:45.566Z,1004.46
2016-05-17T11:43:45.600Z,1004.49
2016-05-17T11:44:45.711Z,1004.44
2016-05-17T11:45:45.636Z,1004.44
2016-05-17T11:46:45.670Z,1004.39
2016-05-17T11:47:45.689Z,1004.41
2016-05-17T11:48:45.707Z,1004.4
2016-05-17T11:49:45.725Z,1004.43
2016-05-17T11:50:45.759Z,1004.4
2016-05-17T11:51:45.777Z,1004.41
2016-05-17T11:52:45.796Z,1004.43
2016-05-17T11:53:45.830Z,1004.45
2016-05-17T11:54:45.848Z,1004.42
2016-05-17T11:55:45.866Z,1004.45
2016-05-17T11:56:45.885Z,1004.42
2016-05-17T11:57:45.918Z,1004.39
2016-05-17T11:58:45.938Z,1004.4
2016-05-17T11:59:45.956Z,1004.4
2016-05-17T12:00:45.989Z,1004.41
2016-05-17T12:01:46.007Z,1004.4
2016-05-17T12:02:46.026Z,1004.39
2016-05-17T12:03:46.060Z,1004.32
2016-05-17T12:04:46.078Z,1004.32
2016-05-17T12:05:46.097Z,1004.31
2016-05-17T12:06:46.115Z,1004.3
2016-05-17T12:07:46.211Z,1004.24
2016-05-17T12:08:46.167Z,1004.27